Terminal Aerodrome Forecast
Issued by NWS

Home | Current Version | Previous Version | Text Only | Print | Product List | Glossary On
Versions: 1 2 3 4 5 6 7 8 9 10 11 12 13 14
352
FTUS45 KREV 181126
TAFMMH
TAF
KMMH 181126Z 1812/1912 VRB04KT P6SM FEW100 BKN180 WS020/23030KT
     FM181700 20009KT P6SM SCT090 BKN150 WS020/23035KT
     FM182200 19012G23KT P6SM VCSH BKN080 OVC120 WS015/23040KT
     FM190300 19011G20KT 3SM -SN BKN025 OVC040 WS015/24045KT
     FM190700 21010G20KT 1SM -SN OVC008 WS015/25040KT=

USA.gov is the U.S. government's official web portal to all federal, state and local government web resources and services.